createdAt,value
2023-03-03T00:01:49.604Z,30.75
2023-03-03T00:04:18.197Z,30.82
2023-03-03T00:06:47.041Z,30.90
2023-03-03T00:09:16.823Z,31.13
2023-03-03T00:11:47.718Z,31.55
2023-03-03T00:14:28.961Z,31.69
2023-03-03T00:16:58.240Z,31.68
2023-03-03T00:19:27.040Z,31.70
2023-03-03T00:21:57.317Z,31.70
2023-03-03T00:24:37.112Z,31.71
2023-03-03T00:27:24.721Z,32.05
2023-03-03T00:29:57.278Z,31.91
2023-03-03T00:32:47.792Z,31.80
2023-03-03T00:35:39.061Z,31.95
2023-03-03T00:38:19.897Z,31.92
2023-03-03T00:40:49.275Z,31.94
2023-03-03T00:43:28.315Z,31.84
2023-03-03T00:45:58.929Z,31.83
2023-03-03T00:48:34.572Z,31.48
2023-03-03T00:51:22.547Z,31.39
2023-03-03T00:53:52.073Z,31.51
2023-03-03T00:56:21.297Z,31.47
2023-03-03T00:58:51.535Z,31.41
2023-03-03T01:01:21.420Z,31.39
2023-03-03T01:03:53.462Z,31.46
2023-03-03T01:06:24.862Z,31.60
2023-03-03T01:08:53.855Z,31.78
2023-03-03T01:11:24.850Z,31.89
2023-03-03T01:13:53.918Z,31.91
2023-03-03T01:16:27.259Z,31.82
2023-03-03T01:18:57.834Z,31.80
2023-03-03T01:21:26.753Z,31.66
2023-03-03T01:23:57.140Z,31.70
2023-03-03T01:26:25.962Z,31.74
2023-03-03T01:28:58.229Z,31.74
2023-03-03T01:31:27.445Z,31.64
2023-03-03T01:33:56.028Z,31.67
2023-03-03T01:36:25.910Z,31.65
2023-03-03T01:38:55.921Z,31.71
2023-03-03T01:41:30.531Z,31.68
2023-03-03T01:43:59.452Z,31.73
2023-03-03T01:46:32.405Z,31.70
2023-03-03T01:49:04.615Z,31.68
2023-03-03T01:51:36.676Z,31.71
2023-03-03T01:54:07.650Z,31.86
2023-03-03T01:56:36.295Z,31.83
2023-03-03T01:59:10.425Z,31.72
2023-03-03T02:01:41.275Z,31.65
2023-03-03T02:04:20.702Z,31.61
2023-03-03T02:06:57.080Z,31.54
2023-03-03T02:09:39.554Z,31.52
2023-03-03T02:12:09.769Z,31.46
2023-03-03T02:14:38.342Z,31.44
2023-03-03T02:17:13.137Z,31.45
2023-03-03T02:19:56.897Z,31.58
2023-03-03T02:23:02.908Z,31.67
2023-03-03T02:26:06.974Z,31.81
2023-03-03T02:28:37.520Z,31.87
2023-03-03T02:31:12.781Z,31.92
2023-03-03T02:33:46.406Z,31.88
2023-03-03T02:36:19.560Z,31.78
2023-03-03T02:39:00.253Z,31.78
2023-03-03T02:41:47.876Z,31.86
2023-03-03T02:44:18.221Z,32.01
2023-03-03T02:46:48.723Z,32.03
2023-03-03T02:49:20.935Z,32.12
2023-03-03T02:51:49.961Z,32.10
2023-03-03T02:54:20.284Z,32.08
2023-03-03T02:56:50.221Z,32.01
2023-03-03T02:59:19.364Z,31.98
2023-03-03T03:01:50.728Z,31.96
2023-03-03T03:04:25.638Z,31.92
2023-03-03T03:06:57.926Z,31.95
2023-03-03T03:09:29.609Z,31.90
2023-03-03T03:12:03.218Z,31.82
2023-03-03T03:14:35.463Z,31.61
2023-03-03T03:17:05.196Z,31.50
2023-03-03T03:19:34.093Z,31.34
2023-03-03T03:22:04.614Z,31.30
2023-03-03T03:24:35.440Z,31.28
2023-03-03T03:27:06.547Z,31.32
2023-03-03T03:29:39.221Z,31.31
2023-03-03T03:32:08.330Z,31.19
2023-03-03T03:34:37.952Z,31.12
2023-03-03T03:37:10.997Z,31.09
2023-03-03T03:39:59.336Z,31.13
2023-03-03T03:42:29.130Z,31.06
2023-03-03T03:44:59.476Z,31.11
2023-03-03T03:47:29.494Z,30.99
2023-03-03T03:50:02.321Z,30.96
2023-03-03T03:52:32.508Z,31.09
2023-03-03T03:55:02.897Z,31.01
2023-03-03T03:57:31.978Z,31.16
2023-03-03T04:00:24.650Z,31.17
2023-03-03T04:02:55.985Z,31.07
2023-03-03T04:05:25.519Z,31.07
2023-03-03T04:07:56.950Z,31.04
2023-03-03T04:10:26.230Z,31.12
2023-03-03T04:12:55.484Z,31.25
2023-03-03T04:15:25.232Z,31.17
2023-03-03T04:17:54.728Z,31.30
2023-03-03T04:20:23.970Z,31.32
2023-03-03T04:22:57.307Z,31.27
2023-03-03T04:25:26.561Z,31.15
2023-03-03T04:27:55.612Z,31.06
2023-03-03T04:30:25.047Z,30.99
2023-03-03T04:32:58.523Z,31.03
2023-03-03T04:35:28.393Z,31.10
2023-03-03T04:37:58.342Z,30.93
2023-03-03T04:40:27.323Z,30.85
2023-03-03T04:42:56.953Z,30.79
2023-03-03T04:45:26.320Z,30.78
2023-03-03T04:47:56.663Z,30.82
2023-03-03T04:50:26.033Z,30.88
2023-03-03T04:52:55.814Z,30.66
2023-03-03T04:55:25.431Z,30.62
2023-03-03T04:57:55.521Z,30.58
2023-03-03T05:00:26.074Z,30.57
2023-03-03T05:02:55.721Z,30.71
2023-03-03T05:05:25.783Z,30.78
2023-03-03T05:07:54.867Z,30.72
2023-03-03T05:10:23.983Z,30.69
2023-03-03T05:12:53.219Z,30.67
2023-03-03T05:15:22.231Z,30.66
2023-03-03T05:17:53.889Z,30.64
2023-03-03T05:20:23.818Z,30.61
2023-03-03T05:22:53.356Z,30.46
2023-03-03T05:25:24.801Z,30.39
2023-03-03T05:27:56.791Z,30.48
2023-03-03T05:30:25.831Z,30.69
2023-03-03T05:32:54.764Z,30.96
2023-03-03T05:35:25.536Z,30.99
2023-03-03T05:37:58.774Z,31.01
2023-03-03T05:40:28.366Z,31.03
2023-03-03T05:42:57.660Z,31.01
2023-03-03T05:45:26.791Z,31.11
2023-03-03T05:47:56.775Z,31.17
2023-03-03T05:50:28.871Z,31.16
2023-03-03T05:52:59.175Z,31.18
2023-03-03T05:55:29.116Z,31.23
2023-03-03T05:57:58.553Z,31.33
2023-03-03T06:00:27.845Z,31.39
2023-03-03T06:02:57.697Z,31.49
2023-03-03T06:05:29.220Z,31.55
2023-03-03T06:08:03.533Z,31.58
2023-03-03T06:10:34.033Z,31.71
2023-03-03T06:13:07.887Z,31.69
2023-03-03T06:15:41.110Z,31.65
2023-03-03T06:18:13.226Z,31.62
2023-03-03T06:20:45.842Z,31.66
2023-03-03T06:23:16.697Z,31.88
2023-03-03T06:25:50.038Z,32.01
2023-03-03T06:28:20.193Z,32.13
2023-03-03T06:30:54.020Z,32.23
2023-03-03T06:33:24.431Z,32.25
2023-03-03T06:35:54.140Z,32.30
2023-03-03T06:38:24.172Z,32.29
2023-03-03T06:40:53.884Z,32.24
2023-03-03T06:43:23.861Z,32.22
2023-03-03T06:45:53.405Z,32.16
2023-03-03T06:48:23.516Z,32.17
2023-03-03T06:50:54.856Z,32.13
2023-03-03T06:53:24.460Z,32.14
2023-03-03T06:55:56.336Z,32.14
2023-03-03T06:58:27.058Z,32.19
2023-03-03T07:00:59.699Z,32.40
2023-03-03T07:03:35.797Z,32.45
2023-03-03T07:06:22.511Z,32.45
2023-03-03T07:08:54.367Z,32.55
2023-03-03T07:11:25.290Z,32.81
2023-03-03T07:13:56.669Z,32.88
2023-03-03T07:16:28.900Z,32.96
2023-03-03T07:19:05.802Z,33.01
2023-03-03T07:21:37.791Z,32.83
2023-03-03T07:24:20.689Z,32.85
2023-03-03T07:26:51.050Z,32.94
2023-03-03T07:29:27.569Z,33.03
2023-03-03T07:32:02.119Z,32.99
2023-03-03T07:34:40.357Z,32.87
2023-03-03T07:37:33.290Z,32.98
2023-03-03T07:40:03.770Z,32.97
2023-03-03T07:42:41.289Z,33.03
2023-03-03T07:45:38.114Z,33.02
2023-03-03T07:48:14.007Z,33.00
2023-03-03T07:50:43.985Z,33.08
2023-03-03T07:53:27.323Z,33.13
2023-03-03T07:55:56.964Z,33.09
2023-03-03T07:58:36.246Z,33.16
2023-03-03T08:01:28.956Z,33.27
2023-03-03T08:03:58.250Z,33.36
2023-03-03T08:06:33.441Z,33.32
2023-03-03T08:09:11.557Z,33.37
2023-03-03T08:12:22.102Z,33.45
2023-03-03T08:14:52.545Z,33.61
2023-03-03T08:17:26.917Z,33.55
2023-03-03T08:19:56.492Z,33.50
2023-03-03T08:22:38.913Z,33.49
2023-03-03T08:25:10.242Z,33.51
2023-03-03T08:27:40.527Z,33.49
2023-03-03T08:30:10.302Z,33.59
2023-03-03T08:32:39.309Z,33.80
2023-03-03T08:35:09.247Z,33.84
2023-03-03T08:37:39.647Z,33.86
2023-03-03T08:40:11.723Z,33.87
2023-03-03T08:42:41.734Z,33.92
2023-03-03T08:45:11.366Z,33.97
2023-03-03T08:47:40.550Z,34.00
2023-03-03T08:50:13.707Z,34.06
2023-03-03T08:52:43.076Z,34.20
2023-03-03T08:55:16.435Z,34.22
2023-03-03T08:57:45.536Z,34.15
2023-03-03T09:00:16.068Z,34.10
2023-03-03T09:02:45.081Z,34.10
2023-03-03T09:05:14.863Z,34.28
2023-03-03T09:07:47.826Z,34.39
2023-03-03T09:10:20.730Z,34.22
2023-03-03T09:12:51.582Z,34.25
2023-03-03T09:15:30.679Z,34.32
2023-03-03T09:18:38.550Z,34.48
2023-03-03T09:21:30.229Z,34.74
2023-03-03T09:24:00.515Z,34.78
2023-03-03T09:26:31.351Z,34.83
2023-03-03T09:29:15.663Z,34.86
2023-03-03T09:31:47.208Z,34.92
2023-03-03T09:34:22.822Z,34.92
2023-03-03T09:36:53.721Z,34.93
2023-03-03T09:39:27.198Z,34.98
2023-03-03T09:42:23.673Z,35.11
2023-03-03T09:45:05.190Z,35.14
2023-03-03T09:47:53.411Z,35.12
2023-03-03T09:50:43.835Z,35.03
2023-03-03T09:53:14.707Z,34.95
2023-03-03T09:56:02.898Z,35.01
2023-03-03T09:58:47.882Z,35.13
2023-03-03T10:01:44.774Z,35.17
2023-03-03T10:04:23.088Z,35.24
2023-03-03T10:07:19.302Z,35.19
2023-03-03T10:09:54.578Z,35.40
2023-03-03T10:13:08.888Z,35.41
2023-03-03T10:15:48.823Z,35.31
2023-03-03T10:18:53.208Z,35.27
2023-03-03T10:21:26.870Z,35.38
2023-03-03T10:24:10.150Z,35.36
2023-03-03T10:27:20.574Z,35.50
2023-03-03T10:29:58.486Z,35.68
2023-03-03T10:32:34.221Z,35.73
2023-03-03T10:35:27.726Z,35.76
2023-03-03T10:38:22.683Z,35.87
2023-03-03T10:41:12.665Z,35.85
2023-03-03T10:44:00.994Z,35.84
2023-03-03T10:46:52.738Z,35.91
2023-03-03T10:50:04.262Z,35.84
2023-03-03T10:52:54.905Z,35.63
2023-03-03T10:55:42.784Z,35.37
2023-03-03T10:58:43.038Z,35.35
2023-03-03T11:01:40.880Z,35.40
2023-03-03T11:04:40.877Z,35.53
2023-03-03T11:07:26.822Z,35.61
2023-03-03T11:10:00.914Z,35.42
2023-03-03T11:12:48.337Z,35.32
2023-03-03T11:15:36.238Z,35.62
2023-03-03T11:18:36.960Z,35.69
2023-03-03T11:21:27.417Z,35.72
2023-03-03T11:24:00.986Z,35.76
2023-03-03T11:26:43.125Z,35.72
2023-03-03T11:29:30.623Z,35.68
2023-03-03T11:32:14.473Z,35.77
2023-03-03T11:34:47.530Z,35.82
2023-03-03T11:37:45.908Z,35.84
2023-03-03T11:40:19.438Z,35.81
2023-03-03T11:43:02.509Z,35.74
2023-03-03T11:45:50.395Z,35.89
2023-03-03T11:48:43.214Z,35.87
2023-03-03T11:51:25.048Z,35.91
2023-03-03T11:54:04.829Z,35.99
2023-03-03T11:56:44.849Z,36.15
2023-03-03T11:59:40.748Z,36.13
2023-03-03T12:02:21.943Z,35.97
2023-03-03T12:05:09.718Z,35.67
2023-03-03T12:07:54.247Z,35.48
2023-03-03T12:10:49.985Z,35.53
2023-03-03T12:13:24.061Z,35.83
2023-03-03T12:15:58.859Z,35.80
2023-03-03T12:18:51.533Z,35.74
2023-03-03T12:21:29.198Z,35.65
2023-03-03T12:24:07.667Z,35.87
2023-03-03T12:26:55.875Z,35.92
2023-03-03T12:29:35.774Z,35.77
2023-03-03T12:32:16.683Z,35.64
2023-03-03T12:34:59.440Z,35.47
2023-03-03T12:37:56.289Z,35.39
2023-03-03T12:40:29.570Z,35.63
2023-03-03T12:43:26.106Z,35.55
2023-03-03T12:46:19.683Z,35.43
2023-03-03T12:48:48.904Z,35.54
2023-03-03T12:51:40.364Z,35.34
2023-03-03T12:54:16.547Z,35.12
2023-03-03T12:56:55.979Z,35.14
2023-03-03T12:59:46.121Z,34.88
2023-03-03T13:02:37.672Z,34.83
2023-03-03T13:05:06.986Z,34.86
2023-03-03T13:07:39.818Z,34.96
2023-03-03T13:10:09.266Z,34.97
2023-03-03T13:13:19.746Z,34.94
2023-03-03T13:16:05.542Z,34.91
2023-03-03T13:19:04.777Z,34.93
2023-03-03T13:21:38.462Z,35.13
2023-03-03T13:24:12.841Z,35.29
2023-03-03T13:26:45.634Z,35.41
2023-03-03T13:29:26.234Z,35.40
2023-03-03T13:31:58.696Z,35.42
2023-03-03T13:34:42.429Z,35.43
2023-03-03T13:37:16.862Z,35.33
2023-03-03T13:40:12.721Z,35.26
2023-03-03T13:43:03.381Z,35.31
2023-03-03T13:46:02.762Z,35.36
2023-03-03T13:48:45.453Z,35.41
2023-03-03T13:51:14.735Z,35.38
2023-03-03T13:54:17.853Z,35.25
2023-03-03T13:56:49.714Z,35.17
2023-03-03T13:59:25.274Z,35.24
2023-03-03T14:02:02.220Z,35.50
2023-03-03T14:04:36.333Z,35.58
2023-03-03T14:07:14.869Z,35.52
2023-03-03T14:09:53.962Z,35.14
2023-03-03T14:12:42.673Z,35.04
2023-03-03T14:15:32.104Z,35.07
2023-03-03T14:18:05.445Z,35.07
2023-03-03T14:20:49.755Z,35.11
2023-03-03T14:23:57.842Z,35.18
2023-03-03T14:26:27.078Z,35.16
2023-03-03T14:29:34.302Z,35.16
2023-03-03T14:32:21.012Z,35.15
2023-03-03T14:35:01.019Z,35.10
2023-03-03T14:37:43.120Z,35.11
2023-03-03T14:40:22.066Z,35.21
2023-03-03T14:42:54.401Z,35.34
2023-03-03T14:45:41.444Z,35.17
2023-03-03T14:48:17.154Z,34.90
2023-03-03T14:50:56.960Z,34.74
2023-03-03T14:53:36.705Z,34.51
2023-03-03T14:56:35.732Z,34.35
2023-03-03T14:59:26.732Z,34.29
2023-03-03T15:02:11.498Z,34.28
2023-03-03T15:04:40.742Z,34.22
2023-03-03T15:07:29.452Z,34.15
2023-03-03T15:09:59.821Z,34.49
2023-03-03T15:12:33.231Z,34.69
2023-03-03T15:15:03.681Z,34.71
2023-03-03T15:18:10.532Z,34.67
2023-03-03T15:21:00.738Z,34.65
2023-03-03T15:23:53.465Z,34.62
2023-03-03T15:26:58.273Z,34.60
2023-03-03T15:29:37.961Z,34.62
2023-03-03T15:32:30.316Z,34.72
2023-03-03T15:35:06.508Z,34.66
2023-03-03T15:37:44.782Z,34.91
2023-03-03T15:40:30.473Z,34.74
2023-03-03T15:43:34.006Z,34.70
2023-03-03T15:46:35.486Z,34.68
2023-03-03T15:49:14.201Z,34.62
2023-03-03T15:51:50.802Z,34.54
2023-03-03T15:55:00.680Z,34.57
2023-03-03T15:58:25.378Z,34.55
2023-03-03T16:01:27.478Z,34.48
2023-03-03T16:04:00.551Z,34.50
2023-03-03T16:06:52.485Z,34.56
2023-03-03T16:09:25.625Z,34.64
2023-03-03T16:12:23.477Z,34.64
2023-03-03T16:15:21.092Z,34.71
2023-03-03T16:17:57.497Z,34.65
2023-03-03T16:20:34.295Z,34.62
2023-03-03T16:23:17.848Z,34.69
2023-03-03T16:25:59.044Z,34.64
2023-03-03T16:28:36.899Z,34.57
2023-03-03T16:31:19.330Z,34.64
2023-03-03T16:34:15.398Z,34.68
2023-03-03T16:37:03.140Z,34.71
2023-03-03T16:39:57.904Z,34.70
2023-03-03T16:42:31.516Z,34.64
2023-03-03T16:45:07.384Z,34.48
2023-03-03T16:48:04.573Z,34.30
2023-03-03T16:50:45.811Z,34.28
2023-03-03T16:53:26.379Z,34.30
2023-03-03T16:56:05.350Z,34.32
2023-03-03T16:58:56.956Z,34.35
2023-03-03T17:02:02.958Z,34.37
2023-03-03T17:04:46.975Z,34.56
2023-03-03T17:07:24.306Z,34.60
2023-03-03T17:10:05.348Z,34.54
2023-03-03T17:12:55.583Z,34.43
2023-03-03T17:15:51.431Z,34.33
2023-03-03T17:18:26.863Z,34.15
2023-03-03T17:21:02.224Z,34.10
2023-03-03T17:23:41.676Z,34.09
2023-03-03T17:26:32.173Z,34.11
2023-03-03T17:29:36.433Z,34.15
2023-03-03T17:32:12.689Z,34.15
2023-03-03T17:34:56.009Z,34.10
2023-03-03T17:37:49.366Z,34.09
2023-03-03T17:40:22.338Z,34.06
2023-03-03T17:43:16.072Z,34.06
2023-03-03T17:45:46.855Z,34.05
2023-03-03T17:48:24.818Z,34.06
2023-03-03T17:51:12.755Z,34.16
2023-03-03T17:54:06.319Z,34.14
2023-03-03T17:56:57.141Z,34.10
2023-03-03T17:59:55.993Z,34.19
2023-03-03T18:02:42.846Z,34.24
2023-03-03T18:05:30.057Z,34.19
2023-03-03T18:08:32.754Z,34.15
2023-03-03T18:11:24.641Z,34.00
2023-03-03T18:14:17.896Z,33.85
2023-03-03T18:17:10.281Z,33.81
2023-03-03T18:19:59.824Z,33.84
2023-03-03T18:22:31.407Z,33.75
2023-03-03T18:25:13.409Z,33.68
2023-03-03T18:27:44.833Z,33.60
2023-03-03T18:30:19.293Z,33.43
2023-03-03T18:33:00.419Z,33.12
2023-03-03T18:35:39.424Z,33.07
2023-03-03T18:38:18.358Z,32.99
2023-03-03T18:41:10.041Z,32.98
2023-03-03T18:43:51.030Z,32.98
2023-03-03T18:46:23.657Z,32.84
2023-03-03T18:49:06.033Z,32.73
2023-03-03T18:51:35.400Z,32.67
2023-03-03T18:54:22.890Z,32.57
2023-03-03T18:56:58.059Z,32.52
2023-03-03T18:59:33.668Z,32.48
2023-03-03T19:02:12.176Z,32.31
2023-03-03T19:04:43.462Z,32.36
2023-03-03T19:07:44.544Z,32.30
2023-03-03T19:10:20.043Z,32.30
2023-03-03T19:12:59.887Z,32.21
2023-03-03T19:15:35.775Z,32.13
2023-03-03T19:18:30.072Z,32.10
2023-03-03T19:21:23.894Z,32.11
2023-03-03T19:24:03.252Z,32.19
2023-03-03T19:26:54.505Z,32.24
2023-03-03T19:29:42.435Z,32.26
2023-03-03T19:32:34.147Z,32.23
2023-03-03T19:35:14.700Z,32.41
2023-03-03T19:37:50.328Z,32.57
2023-03-03T19:40:41.905Z,32.46
2023-03-03T19:43:45.286Z,32.32
2023-03-03T19:46:38.658Z,32.27
2023-03-03T19:49:17.715Z,32.21
2023-03-03T19:52:17.264Z,32.18
2023-03-03T19:55:18.128Z,32.16
2023-03-03T19:58:05.764Z,32.20
2023-03-03T20:01:25.120Z,32.31
2023-03-03T20:04:30.878Z,32.31
2023-03-03T20:07:22.237Z,32.40
2023-03-03T20:10:11.088Z,32.39
2023-03-03T20:12:53.866Z,32.37
2023-03-03T20:15:41.141Z,32.31
2023-03-03T20:18:31.746Z,32.22
2023-03-03T20:21:23.059Z,32.19
2023-03-03T20:24:27.061Z,32.18
2023-03-03T20:27:04.850Z,32.16
2023-03-03T20:29:41.542Z,32.16
2023-03-03T20:32:23.753Z,32.31
2023-03-03T20:35:10.397Z,32.42
2023-03-03T20:38:04.496Z,32.42
2023-03-03T20:40:57.790Z,32.32
2023-03-03T20:43:57.248Z,32.24
2023-03-03T20:46:44.814Z,32.16
2023-03-03T20:49:23.915Z,32.19
2023-03-03T20:52:25.374Z,32.27
2023-03-03T20:55:04.905Z,32.17
2023-03-03T20:57:48.185Z,32.12
2023-03-03T21:00:40.576Z,32.02
2023-03-03T21:03:45.682Z,31.98
2023-03-03T21:06:21.070Z,31.93
2023-03-03T21:08:55.574Z,31.79
2023-03-03T21:11:30.349Z,31.65
2023-03-03T21:14:24.562Z,31.73
2023-03-03T21:17:03.208Z,31.76
2023-03-03T21:19:37.131Z,31.77
2023-03-03T21:22:06.509Z,31.82
2023-03-03T21:24:56.553Z,31.83
2023-03-03T21:27:33.762Z,31.87
2023-03-03T21:30:16.908Z,31.99
2023-03-03T21:32:48.704Z,32.09
2023-03-03T21:35:19.330Z,32.08
2023-03-03T21:37:58.109Z,31.98
2023-03-03T21:40:34.926Z,31.84
2023-03-03T21:43:04.337Z,31.76
2023-03-03T21:45:33.665Z,31.76
2023-03-03T21:48:04.435Z,31.78
2023-03-03T21:50:43.246Z,31.77
2023-03-03T21:53:12.707Z,31.70
2023-03-03T21:55:49.109Z,31.72
2023-03-03T21:58:23.366Z,31.72
2023-03-03T22:00:54.911Z,31.69
2023-03-03T22:03:24.351Z,31.84
2023-03-03T22:05:54.360Z,31.83
2023-03-03T22:08:24.072Z,31.74
2023-03-03T22:10:56.625Z,31.75
2023-03-03T22:13:27.457Z,31.71
2023-03-03T22:15:56.863Z,31.72
2023-03-03T22:18:26.225Z,31.83
2023-03-03T22:20:59.396Z,31.83
2023-03-03T22:23:28.652Z,31.73
2023-03-03T22:25:57.748Z,31.73
2023-03-03T22:28:29.453Z,31.71
2023-03-03T22:30:58.799Z,31.73
2023-03-03T22:33:31.249Z,31.63
2023-03-03T22:36:00.339Z,31.53
2023-03-03T22:38:29.364Z,31.53
2023-03-03T22:41:00.066Z,31.53
2023-03-03T22:43:30.164Z,31.55
2023-03-03T22:46:01.436Z,31.58
2023-03-03T22:48:31.889Z,31.59
2023-03-03T22:51:01.181Z,31.52
2023-03-03T22:53:46.997Z,31.08
2023-03-03T22:56:16.498Z,30.99
2023-03-03T22:58:46.010Z,30.89
2023-03-03T23:01:17.414Z,31.07
2023-03-03T23:03:50.867Z,31.17
2023-03-03T23:06:19.737Z,31.18
2023-03-03T23:08:53.023Z,31.24
2023-03-03T23:11:25.267Z,31.38
2023-03-03T23:13:55.448Z,31.41
2023-03-03T23:16:25.212Z,31.41
2023-03-03T23:18:57.201Z,31.50
2023-03-03T23:21:26.176Z,31.51
2023-03-03T23:23:55.150Z,31.48
2023-03-03T23:26:24.049Z,31.47
2023-03-03T23:28:53.061Z,31.49
2023-03-03T23:31:22.001Z,31.45
2023-03-03T23:33:51.059Z,31.49
2023-03-03T23:36:20.079Z,31.45
2023-03-03T23:38:48.979Z,31.43
2023-03-03T23:41:19.060Z,31.30
2023-03-03T23:43:48.137Z,31.19
2023-03-03T23:46:18.277Z,31.16
2023-03-03T23:48:47.531Z,31.16
2023-03-03T23:51:16.484Z,31.19
2023-03-03T23:56:14.873Z,31.07
2023-03-03T23:58:43.455Z,31.08
